createdAt,value
2022-12-20T00:02:09.743Z,30.42
2022-12-20T00:07:12.406Z,34.72
2022-12-20T00:17:16.677Z,33.60
2022-12-20T00:22:19.198Z,36.75
2022-12-20T00:32:23.821Z,39.95
2022-12-20T00:42:28.001Z,37.00
2022-12-20T00:47:30.199Z,43.63
2022-12-20T00:52:32.359Z,38.70
2022-12-20T00:57:34.432Z,37.85
2022-12-20T01:02:36.803Z,38.20
2022-12-20T01:07:41.517Z,40.77
2022-12-20T01:12:44.244Z,35.85
2022-12-20T01:17:46.473Z,38.50
2022-12-20T01:22:48.753Z,38.38
2022-12-20T01:27:50.840Z,39.58
2022-12-20T01:32:52.943Z,40.92
2022-12-20T01:37:55.039Z,30.95
2022-12-20T01:42:57.121Z,34.80
2022-12-20T01:48:00.489Z,27.98
2022-12-20T01:53:05.348Z,37.85
2022-12-20T01:58:12.121Z,33.90
2022-12-20T02:03:16.781Z,43.05
2022-12-20T02:08:20.931Z,46.90
2022-12-20T02:13:51.117Z,42.90
2022-12-20T02:19:01.233Z,29.15
2022-12-20T02:24:06.793Z,32.95
2022-12-20T02:29:30.961Z,27.15
2022-12-20T02:34:37.383Z,32.60
2022-12-20T02:39:42.438Z,28.80
2022-12-20T02:45:11.631Z,26.30
2022-12-20T02:50:18.185Z,27.00
2022-12-20T02:55:24.999Z,32.47
2022-12-20T03:00:32.414Z,25.00
2022-12-20T03:05:43.417Z,28.65
2022-12-20T03:10:45.879Z,29.20
2022-12-20T03:15:48.135Z,27.00
2022-12-20T03:25:53.037Z,30.15
2022-12-20T03:30:56.791Z,32.60
2022-12-20T03:35:59.340Z,30.75
2022-12-20T03:41:01.658Z,34.05
2022-12-20T03:46:05.157Z,34.90
2022-12-20T03:51:09.362Z,33.85
2022-12-20T03:56:11.922Z,30.60
2022-12-20T04:01:20.172Z,30.95
2022-12-20T04:06:23.881Z,27.70
2022-12-20T04:11:26.238Z,29.30
2022-12-20T04:16:30.675Z,34.37
2022-12-20T04:21:34.611Z,32.43
2022-12-20T04:26:38.681Z,29.07
2022-12-20T04:31:41.345Z,29.17
2022-12-20T04:41:46.788Z,23.70
2022-12-20T04:46:49.614Z,23.92
2022-12-20T04:51:52.704Z,22.73
2022-12-20T04:56:55.671Z,25.05
2022-12-20T05:07:03.193Z,27.40
2022-12-20T05:12:07.569Z,21.20
2022-12-20T05:22:30.737Z,25.25
2022-12-20T05:27:35.900Z,26.75
2022-12-20T05:32:39.014Z,25.25
2022-12-20T05:37:41.533Z,29.65
2022-12-20T05:42:45.574Z,28.95
2022-12-20T05:47:48.562Z,26.17
2022-12-20T05:52:51.491Z,21.40
2022-12-20T05:57:54.681Z,23.20
2022-12-20T06:03:00.716Z,24.57
2022-12-20T06:08:07.742Z,25.03
2022-12-20T06:13:11.261Z,23.20
2022-12-20T06:18:14.612Z,28.30
2022-12-20T06:28:22.227Z,21.13
2022-12-20T06:33:25.475Z,22.83
2022-12-20T06:38:28.353Z,23.70
2022-12-20T06:43:30.682Z,25.30
2022-12-20T06:48:33.084Z,27.73
2022-12-20T06:53:35.306Z,26.77
2022-12-20T06:58:37.947Z,30.43
2022-12-20T07:08:42.782Z,21.45
2022-12-20T07:13:44.798Z,21.52
2022-12-20T07:18:50.888Z,19.75
2022-12-20T07:23:54.825Z,22.33
2022-12-20T07:28:56.905Z,19.50
2022-12-20T07:33:59.039Z,22.23
2022-12-20T07:39:01.122Z,20.37
2022-12-20T07:44:03.706Z,17.87
2022-12-20T07:54:19.223Z,20.17
2022-12-20T07:59:34.755Z,20.10
2022-12-20T08:04:36.840Z,21.57
2022-12-20T08:09:43.244Z,16.73
2022-12-20T08:14:45.910Z,21.80
2022-12-20T08:24:50.835Z,21.93
2022-12-20T08:29:53.055Z,19.95
2022-12-20T08:34:55.440Z,14.10
2022-12-20T08:39:57.508Z,19.05
2022-12-20T08:44:59.568Z,21.65
2022-12-20T08:50:01.744Z,23.00
2022-12-20T08:55:05.657Z,17.75
2022-12-20T09:00:08.724Z,27.00
2022-12-20T09:05:10.893Z,24.10
2022-12-20T09:10:13.137Z,24.92
2022-12-20T09:15:15.579Z,22.02
2022-12-20T09:20:17.836Z,25.98
2022-12-20T09:25:20.541Z,24.33
2022-12-20T09:35:25.541Z,26.73
2022-12-20T09:40:32.546Z,24.42
2022-12-20T09:45:37.668Z,19.00
2022-12-20T09:51:04.780Z,17.55
2022-12-20T09:56:12.764Z,16.57
2022-12-20T10:01:24.978Z,13.57
2022-12-20T10:06:46.558Z,18.60
2022-12-20T10:12:27.290Z,19.55
2022-12-20T10:17:59.790Z,17.77
2022-12-20T10:23:26.676Z,15.33
2022-12-20T10:28:36.080Z,24.30
2022-12-20T10:33:38.712Z,16.35
2022-12-20T10:43:49.525Z,17.50
2022-12-20T10:48:51.655Z,19.65
2022-12-20T10:54:20.020Z,18.08
2022-12-20T10:59:30.430Z,13.25
2022-12-20T11:04:35.386Z,15.05
2022-12-20T11:09:38.059Z,17.50
2022-12-20T11:14:43.037Z,14.73
2022-12-20T11:19:52.006Z,15.00
2022-12-20T11:24:59.886Z,18.85
2022-12-20T11:30:14.316Z,16.80
2022-12-20T11:35:58.516Z,15.45
2022-12-20T11:41:29.030Z,18.62
2022-12-20T11:46:43.253Z,13.80
2022-12-20T11:51:53.177Z,18.95
2022-12-20T11:57:00.143Z,22.20
2022-12-20T12:02:27.811Z,16.80
2022-12-20T12:07:40.061Z,15.10
2022-12-20T12:12:47.986Z,14.90
2022-12-20T12:18:00.704Z,13.40
2022-12-20T12:23:14.990Z,16.87
2022-12-20T12:28:19.992Z,13.43
2022-12-20T12:33:38.688Z,16.97
2022-12-20T12:39:08.541Z,20.30
2022-12-20T12:44:51.872Z,15.10
2022-12-20T12:49:56.352Z,13.55
2022-12-20T12:54:58.513Z,16.40
2022-12-20T13:00:00.804Z,13.82
2022-12-20T13:05:09.155Z,13.73
2022-12-20T13:10:20.139Z,13.60
2022-12-20T13:15:22.652Z,16.35
2022-12-20T13:25:30.574Z,14.93
2022-12-20T13:30:33.493Z,15.30
2022-12-20T13:35:58.213Z,18.80
2022-12-20T13:41:01.734Z,11.10
2022-12-20T13:46:09.864Z,11.23
2022-12-20T13:51:34.449Z,12.10
2022-12-20T13:56:49.477Z,14.10
2022-12-20T14:01:58.485Z,15.80
2022-12-20T14:07:02.535Z,9.30
2022-12-20T14:12:15.597Z,13.20
2022-12-20T14:17:33.552Z,14.30
2022-12-20T14:22:36.393Z,14.75
2022-12-20T14:27:38.565Z,11.40
2022-12-20T14:32:40.660Z,16.02
2022-12-20T14:37:54.027Z,13.23
2022-12-20T14:42:56.400Z,11.20
2022-12-20T14:48:06.589Z,13.62
2022-12-20T14:53:30.091Z,12.90
2022-12-20T14:58:34.487Z,10.93
2022-12-20T15:03:36.716Z,12.20
2022-12-20T15:08:38.986Z,10.43
2022-12-20T15:13:43.651Z,21.12
2022-12-20T15:18:50.358Z,19.05
2022-12-20T15:23:54.624Z,21.70
2022-12-20T15:28:57.525Z,14.10
2022-12-20T15:34:02.431Z,16.40
2022-12-20T15:39:13.262Z,15.70
2022-12-20T15:44:24.909Z,13.80
2022-12-20T15:49:32.824Z,17.35
2022-12-20T15:54:36.990Z,13.85
2022-12-20T16:05:01.971Z,14.70
2022-12-20T16:10:05.081Z,13.65
2022-12-20T16:15:19.778Z,10.65
2022-12-20T16:20:21.991Z,16.15
2022-12-20T16:25:26.083Z,13.95
2022-12-20T16:30:29.031Z,15.60
2022-12-20T16:35:34.264Z,14.90
2022-12-20T16:40:36.793Z,11.87
2022-12-20T16:45:39.346Z,15.20
2022-12-20T16:50:43.352Z,13.38
2022-12-20T16:55:45.989Z,13.57
2022-12-20T17:10:54.804Z,12.53
2022-12-20T17:15:56.958Z,13.57
2022-12-20T17:21:01.832Z,11.27
2022-12-20T17:26:04.880Z,16.83
2022-12-20T17:31:25.740Z,22.10
2022-12-20T17:36:30.755Z,19.93
2022-12-20T17:41:38.512Z,13.47
2022-12-20T17:51:43.470Z,12.63
2022-12-20T17:56:46.069Z,11.90
2022-12-20T18:01:49.124Z,16.50
2022-12-20T18:11:54.439Z,21.92
2022-12-20T18:16:58.476Z,17.10
2022-12-20T18:22:00.752Z,14.35
2022-12-20T18:27:02.904Z,22.65
2022-12-20T18:32:05.497Z,15.45
2022-12-20T18:42:09.673Z,17.55
2022-12-20T18:47:11.820Z,20.00
2022-12-20T18:52:14.115Z,19.65
2022-12-20T18:57:16.373Z,21.55
2022-12-20T19:02:18.625Z,19.40
2022-12-20T19:07:20.902Z,20.55
2022-12-20T19:12:23.052Z,23.70
2022-12-20T19:17:25.337Z,28.48
2022-12-20T19:22:27.578Z,22.80
2022-12-20T19:27:30.388Z,16.35
2022-12-20T19:32:32.559Z,17.90
2022-12-20T19:37:37.483Z,20.25
2022-12-20T19:42:43.338Z,12.55
2022-12-20T19:47:45.601Z,23.60
2022-12-20T19:52:47.889Z,18.02
2022-12-20T19:57:50.551Z,19.65
2022-12-20T20:07:54.863Z,16.45
2022-12-20T20:12:56.993Z,16.75
2022-12-20T20:18:00.522Z,15.77
2022-12-20T20:23:02.665Z,19.00
2022-12-20T20:28:05.944Z,15.80
2022-12-20T20:33:09.634Z,18.70
2022-12-20T20:38:12.164Z,18.45
2022-12-20T20:43:14.313Z,30.05
2022-12-20T20:48:17.460Z,41.63
2022-12-20T20:53:19.572Z,39.10
2022-12-20T20:58:21.701Z,29.30
2022-12-20T21:03:23.786Z,20.95
2022-12-20T21:08:25.892Z,21.35
2022-12-20T21:13:27.948Z,14.43
2022-12-20T21:18:30.094Z,15.50
2022-12-20T21:23:32.416Z,11.57
2022-12-20T21:28:35.570Z,12.18
2022-12-20T21:33:38.306Z,16.25
2022-12-20T21:43:43.199Z,13.80
2022-12-20T21:48:46.006Z,10.32
2022-12-20T21:53:50.563Z,15.20
2022-12-20T21:58:53.082Z,13.10
2022-12-20T22:03:59.197Z,13.82
2022-12-20T22:09:06.139Z,13.60
2022-12-20T22:14:11.148Z,16.90
2022-12-20T22:19:15.360Z,15.70
2022-12-20T22:24:17.429Z,19.15
2022-12-20T22:29:20.184Z,13.02
2022-12-20T22:34:22.330Z,21.55
2022-12-20T22:39:24.462Z,22.02
2022-12-20T22:44:26.946Z,16.17
2022-12-20T22:49:29.179Z,17.50
2022-12-20T22:54:31.276Z,21.42
2022-12-20T22:59:34.692Z,22.73
2022-12-20T23:04:36.845Z,25.70
2022-12-20T23:09:38.936Z,17.58
2022-12-20T23:15:03.897Z,26.55
2022-12-20T23:20:26.133Z,14.70
2022-12-20T23:25:28.248Z,16.95
2022-12-20T23:30:30.696Z,14.95
2022-12-20T23:35:32.938Z,14.82
2022-12-20T23:40:35.064Z,18.95
2022-12-20T23:45:37.155Z,13.90
2022-12-20T23:50:39.694Z,13.45
2022-12-20T23:55:42.225Z,14.32
